Time;durP1;ratioP1;P1;durP2;ratioP2;P2;SDS_P1;SDS_P2;PMS_P1;PMS_P2;Temp;Humidity;BMP_temperature;BMP_pressure;BME280_temperature;BME280_humidity;BME280_pressure;Samples;Min_cycle;Max_cycle;Signal;HPM_P1;HPM_P2
2021/09/23 00:02:36;;;;;;;10.87;7.33;;;;;;;;;;767279;179;917418;-61
2021/09/23 00:04:50;;;;;;;13.77;9.40;;;;;;;;;;771830;179;917027;-61
2021/09/23 00:07:16;;;;;;;14.03;7.67;;;;;;;;;;780437;178;917013;-61
2021/09/23 00:09:42;;;;;;;13.50;8.70;;;;;;;;;;782707;178;918423;-61
2021/09/23 00:12:08;;;;;;;11.50;8.33;;;;;;;;;;772928;179;918422;-61
2021/09/23 00:14:34;;;;;;;14.70;9.37;;;;;;;;;;778864;178;919769;-61
2021/09/23 00:17:00;;;;;;;13.98;9.95;;;;;;;;;;783716;178;919078;-61
2021/09/23 00:19:26;;;;;;;12.70;8.90;;;;;;;;;;782149;178;920018;-61
2021/09/23 00:21:51;;;;;;;13.37;9.77;;;;;;;;;;782391;178;918987;-61
2021/09/23 00:24:17;;;;;;;12.37;8.47;;;;;;;;;;781679;178;918982;-61
2021/09/23 00:26:43;;;;;;;10.90;8.50;;;;;;;;;;781118;176;919664;-61
2021/09/23 00:29:09;;;;;;;16.87;10.33;;;;;;;;;;781446;178;918768;-61
2021/09/23 00:31:35;;;;;;;12.13;9.00;;;;;;;;;;759561;179;919043;-61
2021/09/23 00:34:01;;;;;;;14.90;9.73;;;;;;;;;;770185;179;920609;-61
2021/09/23 00:36:26;;;;;;;17.67;10.30;;;;;;;;;;781281;175;919902;-62
2021/09/23 00:38:52;;;;;;;13.20;9.83;;;;;;;;;;777964;179;626339;-61
2021/09/23 00:41:18;;;;;;;13.27;10.27;;;;;;;;;;782308;180;617911;-61
2021/09/23 00:43:44;;;;;;;13.77;10.13;;;;;;;;;;780693;178;627053;-61
2021/09/23 00:46:10;;;;;;;13.20;9.20;;;;;;;;;;789411;176;920598;-60
2021/09/23 00:48:36;;;;;;;12.47;9.90;;;;;;;;;;778622;180;919018;-61
2021/09/23 00:51:01;;;;;;;14.48;9.88;;;;;;;;;;774953;174;921935;-61
2021/09/23 00:53:27;;;;;;;13.57;9.03;;;;;;;;;;783174;179;623012;-61
2021/09/23 00:55:53;;;;;;;15.00;9.90;;;;;;;;;;782712;178;916231;-60
2021/09/23 00:58:19;;;;;;;13.70;9.30;;;;;;;;;;773041;182;919879;-61
2021/09/23 01:00:45;;;;;;;15.30;8.47;;;;;;;;;;775607;175;920765;-61
2021/09/23 01:03:12;;;;;;;16.90;9.50;;;;;;;;;;778440;178;918389;-60
2021/09/23 01:05:37;;;;;;;13.80;8.50;;;;;;;;;;787947;174;917616;-61
2021/09/23 01:08:02;;;;;;;14.13;10.20;;;;;;;;;;779761;178;928007;-61
2021/09/23 01:10:28;;;;;;;14.03;9.20;;;;;;;;;;782722;178;922931;-61
2021/09/23 01:12:54;;;;;;;13.90;9.20;;;;;;;;;;783234;178;917318;-61
2021/09/23 01:15:20;;;;;;;19.50;11.80;;;;;;;;;;781435;178;920791;-61
2021/09/23 01:17:46;;;;;;;13.80;9.47;;;;;;;;;;778040;178;919687;-61
2021/09/23 01:20:12;;;;;;;17.80;11.35;;;;;;;;;;792378;176;919895;-60
2021/09/23 01:22:38;;;;;;;16.50;10.97;;;;;;;;;;791629;175;911917;-61
2021/09/23 01:25:05;;;;;;;16.60;10.63;;;;;;;;;;752142;180;919762;-60
2021/09/23 01:27:30;;;;;;;14.83;10.27;;;;;;;;;;776517;179;919567;-60
2021/09/23 01:29:56;;;;;;;14.07;10.60;;;;;;;;;;772975;179;918717;-61
2021/09/23 01:32:22;;;;;;;14.60;10.07;;;;;;;;;;782234;176;916770;-60
2021/09/23 01:34:48;;;;;;;13.80;10.33;;;;;;;;;;765343;179;921777;-60
2021/09/23 01:37:14;;;;;;;14.97;10.27;;;;;;;;;;767714;180;915944;-60
2021/09/23 01:39:39;;;;;;;17.00;11.70;;;;;;;;;;757143;183;912922;-60
2021/09/23 01:42:05;;;;;;;15.00;10.47;;;;;;;;;;769180;179;920108;-60
2021/09/23 01:44:31;;;;;;;14.98;10.40;;;;;;;;;;779408;179;915632;-61
2021/09/23 01:46:57;;;;;;;17.40;10.80;;;;;;;;;;776182;176;923593;-61
2021/09/23 01:49:23;;;;;;;21.10;9.87;;;;;;;;;;776330;177;916271;-60
2021/09/23 01:51:49;;;;;;;15.70;10.20;;;;;;;;;;778673;175;916183;-61
2021/09/23 01:54:15;;;;;;;15.20;10.37;;;;;;;;;;775333;179;916761;-60
2021/09/23 01:56:40;;;;;;;16.17;10.47;;;;;;;;;;750200;183;916356;-61
2021/09/23 01:59:06;;;;;;;17.23;12.23;;;;;;;;;;772795;179;916446;-61
2021/09/23 02:01:32;;;;;;;14.30;9.87;;;;;;;;;;766941;180;916358;-60
2021/09/23 02:03:59;;;;;;;16.87;10.20;;;;;;;;;;770603;180;915929;-60
2021/09/23 02:06:24;;;;;;;14.00;10.97;;;;;;;;;;773512;180;919882;-61
2021/09/23 02:08:50;;;;;;;16.93;10.17;;;;;;;;;;779027;180;918754;-61
2021/09/23 02:11:15;;;;;;;13.97;10.77;;;;;;;;;;767544;180;919368;-63
2021/09/23 02:13:41;;;;;;;18.47;11.47;;;;;;;;;;765579;180;915958;-60
2021/09/23 02:16:07;;;;;;;16.20;11.43;;;;;;;;;;782691;174;919434;-60
2021/09/23 02:18:33;;;;;;;13.63;9.63;;;;;;;;;;775007;176;920005;-60
2021/09/23 02:20:59;;;;;;;16.67;11.23;;;;;;;;;;780612;174;919848;-61
2021/09/23 02:23:25;;;;;;;12.13;8.77;;;;;;;;;;766088;179;919155;-60
2021/09/23 02:25:50;;;;;;;13.67;9.90;;;;;;;;;;773128;179;919370;-60
2021/09/23 02:28:16;;;;;;;14.00;10.03;;;;;;;;;;770189;179;919501;-60
2021/09/23 02:30:42;;;;;;;13.43;10.20;;;;;;;;;;772849;179;918866;-61
2021/09/23 02:33:08;;;;;;;15.87;10.40;;;;;;;;;;774433;179;920429;-60
2021/09/23 02:35:34;;;;;;;12.37;9.47;;;;;;;;;;772848;179;918833;-61
2021/09/23 02:38:00;;;;;;;11.55;9.07;;;;;;;;;;772406;179;919246;-60
2021/09/23 02:40:26;;;;;;;10.82;8.77;;;;;;;;;;772843;174;926411;-60
2021/09/23 02:42:52;;;;;;;12.40;9.93;;;;;;;;;;772967;178;918915;-60
2021/09/23 02:45:18;;;;;;;14.80;9.10;;;;;;;;;;774422;179;918753;-62
2021/09/23 02:47:43;;;;;;;16.20;10.93;;;;;;;;;;780972;175;919312;-60
2021/09/23 02:50:10;;;;;;;16.07;9.47;;;;;;;;;;773965;178;919450;-61
2021/09/23 02:52:36;;;;;;;13.33;10.23;;;;;;;;;;755921;183;918650;-61
2021/09/23 02:55:02;;;;;;;16.67;10.10;;;;;;;;;;762557;181;918952;-60
2021/09/23 02:57:27;;;;;;;16.50;9.93;;;;;;;;;;765158;181;918967;-60
2021/09/23 02:59:53;;;;;;;16.40;10.93;;;;;;;;;;770243;179;972453;-60
2021/09/23 03:02:19;;;;;;;13.27;10.02;;;;;;;;;;773307;179;921709;-60
2021/09/23 03:04:45;;;;;;;16.30;11.13;;;;;;;;;;790456;175;918769;-61
2021/09/23 03:07:11;;;;;;;16.00;10.25;;;;;;;;;;765109;182;919906;-61
2021/09/23 03:09:37;;;;;;;21.80;13.73;;;;;;;;;;760316;182;920193;-60
2021/09/23 03:12:02;;;;;;;28.80;16.50;;;;;;;;;;773789;179;919185;-60
2021/09/23 03:14:28;;;;;;;22.37;15.10;;;;;;;;;;782800;179;919889;-60
2021/09/23 03:16:54;;;;;;;31.00;15.70;;;;;;;;;;770613;180;919816;-60
2021/09/23 03:19:20;;;;;;;26.93;17.30;;;;;;;;;;765634;180;919313;-60
2021/09/23 03:21:46;;;;;;;24.30;16.60;;;;;;;;;;767777;180;921762;-60
2021/09/23 03:24:12;;;;;;;25.43;17.00;;;;;;;;;;775505;177;919416;-60
2021/09/23 03:26:38;;;;;;;27.43;18.43;;;;;;;;;;758518;179;918337;-60
2021/09/23 03:29:05;;;;;;;26.07;16.90;;;;;;;;;;768233;180;918865;-60
2021/09/23 03:31:31;;;;;;;29.90;16.67;;;;;;;;;;777747;179;920246;-60
2021/09/23 03:33:57;;;;;;;25.30;17.10;;;;;;;;;;778605;178;912535;-60
2021/09/23 03:36:24;;;;;;;33.50;17.77;;;;;;;;;;771544;179;915906;-60
2021/09/23 03:38:50;;;;;;;28.23;16.43;;;;;;;;;;771372;179;913416;-60
2021/09/23 03:41:14;;;;;;;24.00;16.73;;;;;;;;;;769312;179;922497;-61
2021/09/23 03:43:40;;;;;;;27.43;17.63;;;;;;;;;;771822;177;919444;-60
2021/09/23 03:46:06;;;;;;;21.33;14.20;;;;;;;;;;778869;177;912005;-61
2021/09/23 03:48:32;;;;;;;27.97;16.13;;;;;;;;;;781427;176;918769;-60
2021/09/23 03:50:58;;;;;;;24.13;14.77;;;;;;;;;;766155;179;934241;-60
2021/09/23 03:53:23;;;;;;;21.93;16.17;;;;;;;;;;780439;174;919856;-60
2021/09/23 03:55:49;;;;;;;25.33;14.87;;;;;;;;;;754406;183;918060;-60
2021/09/23 03:58:15;;;;;;;19.63;13.87;;;;;;;;;;767688;180;920608;-61
2021/09/23 04:00:41;;;;;;;24.33;14.37;;;;;;;;;;754213;183;918608;-61
2021/09/23 04:03:07;;;;;;;21.50;13.23;;;;;;;;;;760788;183;946759;-60
2021/09/23 04:05:33;;;;;;;22.63;13.70;;;;;;;;;;764909;180;936859;-60
2021/09/23 04:08:00;;;;;;;24.03;13.80;;;;;;;;;;782479;178;919141;-60
2021/09/23 04:10:24;;;;;;;27.70;14.73;;;;;;;;;;774817;182;629829;-60
2021/09/23 04:12:52;;;;;;;20.97;13.37;;;;;;;;;;763527;182;917573;-60
2021/09/23 04:15:16;;;;;;;23.27;15.70;;;;;;;;;;774881;180;918509;-61
2021/09/23 04:17:42;;;;;;;21.70;13.37;;;;;;;;;;788309;178;627508;-60
2021/09/23 04:20:08;;;;;;;28.47;14.13;;;;;;;;;;785936;177;919135;-60
2021/09/23 04:22:34;;;;;;;23.80;15.00;;;;;;;;;;775696;178;921059;-62
2021/09/23 04:25:00;;;;;;;21.43;14.63;;;;;;;;;;790565;177;624986;-60
2021/09/23 04:27:26;;;;;;;22.70;15.03;;;;;;;;;;779613;176;618580;-61
2021/09/23 04:29:51;;;;;;;25.17;15.47;;;;;;;;;;781031;179;630157;-62
2021/09/23 04:32:17;;;;;;;23.23;15.90;;;;;;;;;;779320;175;919471;-60
2021/09/23 04:34:43;;;;;;;21.80;14.80;;;;;;;;;;775835;179;919192;-60
2021/09/23 04:37:09;;;;;;;24.00;16.50;;;;;;;;;;775131;176;918747;-61
2021/09/23 04:39:35;;;;;;;27.77;15.00;;;;;;;;;;761353;182;622347;-60
2021/09/23 04:42:01;;;;;;;28.10;16.70;;;;;;;;;;789115;178;715411;-60
2021/09/23 04:44:27;;;;;;;25.97;16.07;;;;;;;;;;772652;181;630287;-60
2021/09/23 04:46:52;;;;;;;28.00;18.30;;;;;;;;;;764744;182;919304;-60
2021/09/23 04:49:18;;;;;;;27.23;15.65;;;;;;;;;;779825;180;919893;-60
2021/09/23 04:51:44;;;;;;;31.40;17.13;;;;;;;;;;774795;180;918818;-60
2021/09/23 04:54:10;;;;;;;32.40;18.30;;;;;;;;;;792128;174;918967;-60
2021/09/23 04:56:36;;;;;;;29.25;18.58;;;;;;;;;;790408;175;919056;-60
2021/09/23 04:59:02;;;;;;;37.40;19.33;;;;;;;;;;784049;175;919445;-60
2021/09/23 05:01:27;;;;;;;32.50;18.17;;;;;;;;;;763131;179;919130;-60
2021/09/23 05:03:53;;;;;;;31.57;19.10;;;;;;;;;;747068;183;918912;-60
2021/09/23 05:06:19;;;;;;;28.00;19.80;;;;;;;;;;786345;178;918566;-60
2021/09/23 05:08:45;;;;;;;26.90;16.87;;;;;;;;;;762369;181;919028;-60
2021/09/23 05:11:11;;;;;;;31.30;17.50;;;;;;;;;;775386;180;918898;-61
2021/09/23 05:13:37;;;;;;;26.93;18.07;;;;;;;;;;786927;178;919684;-60
2021/09/23 05:16:03;;;;;;;29.20;16.80;;;;;;;;;;785155;177;923688;-61
2021/09/23 05:18:28;;;;;;;24.00;16.07;;;;;;;;;;762029;182;1007934;-60
2021/09/23 05:20:54;;;;;;;27.90;16.13;;;;;;;;;;785679;177;918642;-60
2021/09/23 05:23:20;;;;;;;28.60;18.17;;;;;;;;;;783999;175;918907;-60
2021/09/23 05:25:46;;;;;;;25.53;14.17;;;;;;;;;;769418;179;919690;-61
2021/09/23 05:28:12;;;;;;;26.23;16.00;;;;;;;;;;750047;183;918980;-60
2021/09/23 05:30:39;;;;;;;24.13;16.50;;;;;;;;;;784538;178;919807;-60
2021/09/23 05:33:05;;;;;;;22.47;13.87;;;;;;;;;;778623;178;919414;-60
2021/09/23 05:35:30;;;;;;;28.30;15.40;;;;;;;;;;792099;175;1022067;-60
2021/09/23 05:37:56;;;;;;;23.60;14.70;;;;;;;;;;795660;175;918310;-60
2021/09/23 05:40:21;;;;;;;25.93;15.97;;;;;;;;;;785245;175;920352;-60
2021/09/23 05:42:47;;;;;;;20.00;14.45;;;;;;;;;;786614;175;920190;-60
2021/09/23 05:45:13;;;;;;;25.93;15.23;;;;;;;;;;793899;176;919234;-61
2021/09/23 05:47:39;;;;;;;31.80;17.07;;;;;;;;;;765740;176;923150;-61
2021/09/23 05:50:05;;;;;;;32.17;16.23;;;;;;;;;;770388;178;919915;-61
2021/09/23 05:52:31;;;;;;;29.83;17.13;;;;;;;;;;778617;177;921421;-61
2021/09/23 05:54:57;;;;;;;29.90;18.57;;;;;;;;;;783790;178;918365;-61
2021/09/23 05:57:24;;;;;;;36.17;18.40;;;;;;;;;;783779;174;920536;-60
2021/09/23 05:59:49;;;;;;;29.50;18.10;;;;;;;;;;777409;180;917503;-60
2021/09/23 06:02:15;;;;;;;32.43;17.90;;;;;;;;;;775701;178;915959;-60
2021/09/23 06:04:40;;;;;;;31.00;18.27;;;;;;;;;;779970;175;916274;-61
2021/09/23 06:07:06;;;;;;;32.03;18.23;;;;;;;;;;788838;175;916050;-61
2021/09/23 06:09:32;;;;;;;36.27;20.33;;;;;;;;;;790984;175;919386;-61
2021/09/23 06:11:58;;;;;;;30.73;16.97;;;;;;;;;;789135;175;919863;-62
2021/09/23 06:14:24;;;;;;;36.50;18.80;;;;;;;;;;791826;175;920893;-61
2021/09/23 06:16:50;;;;;;;36.60;19.80;;;;;;;;;;791090;175;919650;-61
2021/09/23 06:19:15;;;;;;;38.43;19.83;;;;;;;;;;778986;176;919474;-60
2021/09/23 06:21:41;;;;;;;34.50;21.00;;;;;;;;;;772704;180;918701;-62
2021/09/23 06:24:07;;;;;;;36.20;19.67;;;;;;;;;;778706;178;919144;-61
2021/09/23 06:26:33;;;;;;;40.88;21.33;;;;;;;;;;784043;175;918679;-61
2021/09/23 06:28:59;;;;;;;40.53;21.00;;;;;;;;;;793672;175;920285;-60
2021/09/23 06:31:25;;;;;;;34.70;21.10;;;;;;;;;;792929;175;920135;-60
2021/09/23 06:33:51;;;;;;;32.00;18.60;;;;;;;;;;794173;175;920220;-60
2021/09/23 06:36:16;;;;;;;44.60;20.90;;;;;;;;;;792333;175;919519;-60
2021/09/23 06:38:42;;;;;;;32.13;18.00;;;;;;;;;;793167;175;918906;-60
2021/09/23 06:41:10;;;;;;;32.70;16.30;;;;;;;;;;793371;175;918470;-60
2021/09/23 06:43:34;;;;;;;27.97;17.27;;;;;;;;;;775766;178;919803;-61
2021/09/23 06:46:00;;;;;;;28.90;15.37;;;;;;;;;;788947;175;920857;-60
2021/09/23 06:48:26;;;;;;;21.53;14.47;;;;;;;;;;782539;174;919793;-60
2021/09/23 06:50:52;;;;;;;23.80;14.37;;;;;;;;;;785061;178;921953;-60
2021/09/23 06:53:18;;;;;;;27.70;17.13;;;;;;;;;;764647;182;917431;-60
2021/09/23 06:55:43;;;;;;;20.90;14.97;;;;;;;;;;761506;182;921705;-60
2021/09/23 06:58:09;;;;;;;20.65;13.48;;;;;;;;;;778958;179;919278;-60
2021/09/23 07:00:35;;;;;;;24.60;15.20;;;;;;;;;;774569;175;918292;-60
2021/09/23 07:03:01;;;;;;;26.53;15.20;;;;;;;;;;768005;179;915333;-60
2021/09/23 07:05:27;;;;;;;21.93;14.43;;;;;;;;;;776207;179;919777;-60
2021/09/23 07:07:53;;;;;;;24.50;15.37;;;;;;;;;;767366;179;919862;-60
2021/09/23 07:10:19;;;;;;;28.90;15.57;;;;;;;;;;766863;180;919197;-60
2021/09/23 07:12:44;;;;;;;26.00;15.63;;;;;;;;;;766497;179;918893;-60
2021/09/23 07:15:10;;;;;;;24.40;15.50;;;;;;;;;;776066;180;920567;-60
2021/09/23 07:17:37;;;;;;;28.43;17.50;;;;;;;;;;761372;180;1022359;-60
2021/09/23 07:20:03;;;;;;;28.30;15.87;;;;;;;;;;782018;176;919715;-61
2021/09/23 07:22:28;;;;;;;29.23;17.37;;;;;;;;;;787707;175;918893;-60
2021/09/23 07:24:54;;;;;;;25.67;17.50;;;;;;;;;;780668;175;919777;-59
2021/09/23 07:27:20;;;;;;;19.57;15.93;;;;;;;;;;780767;176;919106;-61
2021/09/23 07:29:46;;;;;;;25.13;15.97;;;;;;;;;;786396;178;918771;-60
2021/09/23 07:32:12;;;;;;;24.07;16.10;;;;;;;;;;781482;175;925451;-60
2021/09/23 07:34:38;;;;;;;25.40;17.00;;;;;;;;;;777809;178;919529;-60
2021/09/23 07:37:04;;;;;;;25.70;16.30;;;;;;;;;;788533;175;1021648;-60
2021/09/23 07:39:30;;;;;;;24.77;18.47;;;;;;;;;;779337;176;1007156;-60
2021/09/23 07:41:56;;;;;;;27.52;17.05;;;;;;;;;;792952;175;919381;-61
2021/09/23 07:44:22;;;;;;;24.40;15.40;;;;;;;;;;791450;175;919431;-60
2021/09/23 07:46:47;;;;;;;25.40;16.90;;;;;;;;;;793338;175;920459;-61
2021/09/23 07:49:13;;;;;;;23.13;15.23;;;;;;;;;;789629;175;919219;-61
2021/09/23 07:51:39;;;;;;;24.33;15.57;;;;;;;;;;792196;175;918952;-60
2021/09/23 07:54:05;;;;;;;25.63;14.53;;;;;;;;;;798106;175;919389;-60
2021/09/23 07:56:31;;;;;;;25.70;15.60;;;;;;;;;;793561;175;1020851;-60
2021/09/23 07:58:56;;;;;;;20.67;14.85;;;;;;;;;;785197;176;965406;-60
2021/09/23 08:01:23;;;;;;;32.00;14.68;;;;;;;;;;787871;175;919017;-59
2021/09/23 08:03:50;;;;;;;22.60;14.63;;;;;;;;;;786902;176;918966;-60
2021/09/23 08:06:14;;;;;;;26.77;13.23;;;;;;;;;;790244;175;919177;-60
2021/09/23 08:08:40;;;;;;;22.33;14.10;;;;;;;;;;769291;177;918944;-60
2021/09/23 08:11:06;;;;;;;22.87;12.20;;;;;;;;;;781989;178;918628;-60
2021/09/23 08:13:32;;;;;;;16.10;10.90;;;;;;;;;;765804;181;920786;-60
2021/09/23 08:15:58;;;;;;;18.15;12.45;;;;;;;;;;764634;182;1022049;-61
2021/09/23 08:18:24;;;;;;;20.50;13.83;;;;;;;;;;781119;180;917267;-59
2021/09/23 08:20:50;;;;;;;20.37;12.67;;;;;;;;;;786089;175;919655;-61
2021/09/23 08:23:17;;;;;;;19.70;12.17;;;;;;;;;;783801;175;919060;-60
2021/09/23 08:25:41;;;;;;;26.13;11.60;;;;;;;;;;789557;175;918478;-60
2021/09/23 08:28:07;;;;;;;16.43;9.83;;;;;;;;;;788970;175;1737180;-60
2021/09/23 08:30:33;;;;;;;19.00;11.10;;;;;;;;;;792555;175;919149;-60
2021/09/23 08:32:59;;;;;;;15.80;11.17;;;;;;;;;;791741;175;919614;-60
2021/09/23 08:35:25;;;;;;;18.53;10.73;;;;;;;;;;798884;175;919524;-59
2021/09/23 08:37:51;;;;;;;19.85;11.35;;;;;;;;;;792142;175;918682;-59
2021/09/23 08:40:16;;;;;;;16.00;11.27;;;;;;;;;;793916;175;919102;-60
2021/09/23 08:42:42;;;;;;;16.77;10.20;;;;;;;;;;799232;175;918756;-59
2021/09/23 08:45:09;;;;;;;27.77;13.50;;;;;;;;;;793057;174;920374;-61
2021/09/23 08:47:35;;;;;;;17.50;12.90;;;;;;;;;;790360;175;940102;-60
2021/09/23 08:50:01;;;;;;;15.27;10.67;;;;;;;;;;794518;175;920106;-62
2021/09/23 08:52:27;;;;;;;16.07;10.30;;;;;;;;;;772437;177;921577;-60
2021/09/23 08:54:52;;;;;;;21.20;9.93;;;;;;;;;;781580;175;921709;-60
2021/09/23 08:57:18;;;;;;;24.13;8.27;;;;;;;;;;775032;179;920830;-61
2021/09/23 08:59:44;;;;;;;19.83;8.20;;;;;;;;;;768876;179;920434;-61
2021/09/23 09:02:16;;;;;;;18.50;8.33;;;;;;;;;;776889;178;926662;-61
2021/09/23 09:04:42;;;;;;;16.03;9.20;;;;;;;;;;780967;178;923289;-60
2021/09/23 09:07:08;;;;;;;14.40;7.80;;;;;;;;;;783187;177;919871;-59
2021/09/23 09:09:34;;;;;;;20.27;9.47;;;;;;;;;;778715;177;919132;-60
2021/09/23 09:12:00;;;;;;;22.53;9.20;;;;;;;;;;778432;178;919737;-61
2021/09/23 09:14:26;;;;;;;21.10;10.23;;;;;;;;;;772843;179;920026;-63
2021/09/23 09:16:55;;;;;;;22.20;9.20;;;;;;;;;;779246;178;920580;-60
2021/09/23 09:19:20;;;;;;;19.33;9.57;;;;;;;;;;758586;183;920479;-61
2021/09/23 09:21:46;;;;;;;20.63;10.20;;;;;;;;;;763245;182;918832;-60
2021/09/23 09:24:16;;;;;;;16.43;10.47;;;;;;;;;;780956;178;920413;-60
2021/09/23 09:26:40;;;;;;;23.40;10.57;;;;;;;;;;797127;174;921172;-60
2021/09/23 09:29:03;;;;;;;16.77;11.10;;;;;;;;;;794051;175;912440;-61
2021/09/23 09:31:29;;;;;;;19.10;9.83;;;;;;;;;;798990;175;912261;-61
2021/09/23 09:33:55;;;;;;;25.60;9.63;;;;;;;;;;787384;175;913759;-60
2021/09/23 09:36:23;;;;;;;18.63;10.20;;;;;;;;;;792588;174;919995;-63
2021/09/23 09:38:49;;;;;;;15.63;9.10;;;;;;;;;;792349;175;920509;-60
2021/09/23 09:41:15;;;;;;;19.00;10.00;;;;;;;;;;798800;175;918276;-61
2021/09/23 09:43:43;;;;;;;20.80;10.87;;;;;;;;;;788651;175;927400;-63
2021/09/23 09:46:07;;;;;;;17.37;8.88;;;;;;;;;;791772;174;919458;-62
2021/09/23 09:48:33;;;;;;;15.00;8.30;;;;;;;;;;796646;174;918175;-61
2021/09/23 09:51:00;;;;;;;28.40;9.70;;;;;;;;;;795260;174;919195;-65
2021/09/23 09:53:25;;;;;;;12.67;8.50;;;;;;;;;;787857;175;919933;-61
2021/09/23 09:55:50;;;;;;;17.17;10.27;;;;;;;;;;765727;181;919860;-61
2021/09/23 09:58:18;;;;;;;17.97;9.53;;;;;;;;;;783000;178;920225;-62
2021/09/23 10:00:42;;;;;;;18.43;8.50;;;;;;;;;;773494;178;2108173;-62
2021/09/23 10:03:08;;;;;;;20.53;9.40;;;;;;;;;;761675;182;920962;-61
2021/09/23 10:05:34;;;;;;;22.83;10.10;;;;;;;;;;784254;178;919559;-62
2021/09/23 10:08:00;;;;;;;26.17;9.67;;;;;;;;;;778160;178;918285;-62
2021/09/23 10:10:25;;;;;;;12.40;8.48;;;;;;;;;;777078;178;918535;-62
2021/09/23 10:12:51;;;;;;;24.37;8.97;;;;;;;;;;774604;178;919187;-63
2021/09/23 10:15:17;;;;;;;24.70;10.37;;;;;;;;;;776087;179;918889;-62
2021/09/23 10:17:43;;;;;;;12.80;8.13;;;;;;;;;;780475;178;920109;-62
2021/09/23 10:20:09;;;;;;;18.93;10.20;;;;;;;;;;783670;178;918203;-62
2021/09/23 10:22:35;;;;;;;12.03;10.23;;;;;;;;;;783211;178;916338;-62
2021/09/23 10:25:02;;;;;;;19.10;10.00;;;;;;;;;;781014;178;918401;-62
2021/09/23 10:29:58;;;;;;;18.73;10.33;;;;;;;;;;779084;178;916305;-62
2021/09/23 10:32:24;;;;;;;18.50;9.30;;;;;;;;;;776685;178;921439;-62
2021/09/23 10:34:50;;;;;;;23.10;11.20;;;;;;;;;;772199;179;912767;-61
2021/09/23 10:37:16;;;;;;;13.30;8.80;;;;;;;;;;785722;177;912481;-61
2021/09/23 10:39:42;;;;;;;16.00;11.03;;;;;;;;;;762248;181;914581;-62
2021/09/23 10:42:11;;;;;;;18.13;10.23;;;;;;;;;;772848;177;915178;-62
2021/09/23 10:44:34;;;;;;;26.53;12.23;;;;;;;;;;771425;180;923465;-62
2021/09/23 10:46:59;;;;;;;20.83;11.37;;;;;;;;;;762792;183;817696;-63
2021/09/23 10:49:25;;;;;;;16.20;11.63;;;;;;;;;;762164;180;918841;-62
2021/09/23 10:51:51;;;;;;;17.20;10.90;;;;;;;;;;768028;180;918628;-62
2021/09/23 10:54:22;;;;;;;16.43;10.73;;;;;;;;;;787371;178;920256;-62
2021/09/23 10:56:43;;;;;;;18.77;11.00;;;;;;;;;;765487;182;919136;-66
2021/09/23 10:59:09;;;;;;;29.57;12.30;;;;;;;;;;763507;182;919494;-63
2021/09/23 11:01:36;;;;;;;20.40;12.60;;;;;;;;;;783587;178;919006;-62
2021/09/23 11:04:00;;;;;;;24.70;14.20;;;;;;;;;;779311;178;919301;-63
2021/09/23 11:06:29;;;;;;;19.00;15.10;;;;;;;;;;788562;175;1021426;-63
2021/09/23 11:08:55;;;;;;;22.80;12.73;;;;;;;;;;791430;175;928978;-64
2021/09/23 11:11:21;;;;;;;25.67;12.80;;;;;;;;;;782425;178;918505;-63
2021/09/23 11:13:47;;;;;;;22.45;14.07;;;;;;;;;;786823;175;919710;-63
2021/09/23 11:16:13;;;;;;;21.20;14.00;;;;;;;;;;791034;175;628613;-63
2021/09/23 11:18:38;;;;;;;26.70;14.07;;;;;;;;;;775783;175;878132;-62
2021/09/23 11:21:04;;;;;;;25.40;13.60;;;;;;;;;;776454;178;919836;-64
2021/09/23 11:23:30;;;;;;;19.13;13.37;;;;;;;;;;779656;178;926159;-63
2021/09/23 11:25:56;;;;;;;17.30;14.87;;;;;;;;;;786731;178;918412;-63
2021/09/23 11:28:22;;;;;;;20.12;14.23;;;;;;;;;;773901;176;918693;-63
2021/09/23 11:30:50;;;;;;;28.60;13.73;;;;;;;;;;759545;182;921456;-63
2021/09/23 11:33:14;;;;;;;23.77;13.90;;;;;;;;;;786763;178;621657;-63
2021/09/23 11:35:39;;;;;;;17.07;13.10;;;;;;;;;;781654;179;918811;-62
2021/09/23 11:38:05;;;;;;;16.93;12.43;;;;;;;;;;765876;179;920107;-63
2021/09/23 11:40:32;;;;;;;24.03;12.83;;;;;;;;;;773164;180;919604;-63
2021/09/23 11:42:57;;;;;;;19.27;12.93;;;;;;;;;;768364;180;917560;-62
2021/09/23 11:45:26;;;;;;;18.60;15.80;;;;;;;;;;772175;176;920273;-64
2021/09/23 11:47:52;;;;;;;18.17;13.52;;;;;;;;;;772952;179;955973;-63
2021/09/23 11:50:23;;;;;;;16.33;13.50;;;;;;;;;;772941;179;918373;-63
2021/09/23 11:52:48;;;;;;;20.83;13.40;;;;;;;;;;765187;182;918448;-63
2021/09/23 11:55:14;;;;;;;23.67;13.07;;;;;;;;;;780706;176;941489;-63
2021/09/23 11:57:40;;;;;;;21.53;13.40;;;;;;;;;;773030;179;915968;-65
2021/09/23 12:00:06;;;;;;;20.77;14.25;;;;;;;;;;777992;180;915446;-62
2021/09/23 12:02:32;;;;;;;23.03;13.43;;;;;;;;;;776755;179;915133;-62
2021/09/23 12:05:00;;;;;;;20.40;11.07;;;;;;;;;;770468;180;915278;-61
2021/09/23 12:07:26;;;;;;;16.77;11.70;;;;;;;;;;777174;179;915010;-64
2021/09/23 12:09:56;;;;;;;24.40;14.80;;;;;;;;;;760720;183;918989;-63
2021/09/23 12:12:25;;;;;;;17.13;11.87;;;;;;;;;;769024;179;919203;-63
2021/09/23 12:14:52;;;;;;;16.77;11.00;;;;;;;;;;757158;183;918849;-62
2021/09/23 12:17:18;;;;;;;18.00;11.03;;;;;;;;;;785768;178;918960;-63
2021/09/23 12:19:43;;;;;;;17.63;10.53;;;;;;;;;;786378;175;919785;-62
2021/09/23 12:22:09;;;;;;;15.70;10.10;;;;;;;;;;760034;182;1020027;-62
2021/09/23 12:24:35;;;;;;;17.07;9.80;;;;;;;;;;778948;178;919205;-62
2021/09/23 12:27:01;;;;;;;14.73;10.17;;;;;;;;;;772653;178;931729;-63
2021/09/23 12:29:27;;;;;;;13.93;10.23;;;;;;;;;;771489;179;919156;-63
2021/09/23 12:31:58;;;;;;;16.17;11.00;;;;;;;;;;770774;179;932853;-63
2021/09/23 12:34:25;;;;;;;14.30;10.97;;;;;;;;;;779308;179;919510;-61
2021/09/23 12:36:50;;;;;;;17.63;11.13;;;;;;;;;;773492;179;928381;-62
2021/09/23 12:39:20;;;;;;;15.37;10.23;;;;;;;;;;766533;179;918924;-63
2021/09/23 12:42:00;;;;;;;19.30;11.87;;;;;;;;;;769679;180;918794;-63
2021/09/23 12:44:25;;;;;;;16.60;10.20;;;;;;;;;;767569;180;919362;-62
2021/09/23 12:46:57;;;;;;;21.77;10.53;;;;;;;;;;780978;178;917979;-64
2021/09/23 12:49:22;;;;;;;15.03;10.30;;;;;;;;;;788048;174;919041;-64
2021/09/23 12:51:48;;;;;;;18.17;10.20;;;;;;;;;;775046;177;918707;-64
2021/09/23 12:54:14;;;;;;;14.47;10.63;;;;;;;;;;791928;175;918583;-63
2021/09/23 12:56:40;;;;;;;19.50;9.30;;;;;;;;;;754778;184;1153527;-64
2021/09/23 12:59:12;;;;;;;11.33;9.10;;;;;;;;;;775327;175;919754;-63
2021/09/23 13:01:38;;;;;;;13.83;9.10;;;;;;;;;;776089;180;920058;-63
2021/09/23 13:04:03;;;;;;;11.70;8.70;;;;;;;;;;782668;180;918485;-64
2021/09/23 13:06:29;;;;;;;17.90;10.10;;;;;;;;;;771339;180;1021992;-63
2021/09/23 13:08:55;;;;;;;14.45;8.48;;;;;;;;;;766196;179;920413;-63
2021/09/23 13:11:21;;;;;;;11.20;7.90;;;;;;;;;;774168;179;616190;-64
2021/09/23 13:13:47;;;;;;;17.13;11.10;;;;;;;;;;772624;180;918438;-66
2021/09/23 13:16:13;;;;;;;11.93;8.20;;;;;;;;;;771306;179;918942;-64
2021/09/23 13:18:39;;;;;;;11.87;7.27;;;;;;;;;;779911;180;920042;-63
2021/09/23 13:21:05;;;;;;;14.83;7.70;;;;;;;;;;774058;180;919200;-63
2021/09/23 13:23:31;;;;;;;13.93;8.40;;;;;;;;;;773216;179;630994;-63
2021/09/23 13:25:58;;;;;;;12.63;7.57;;;;;;;;;;776580;179;918729;-62
2021/09/23 13:28:25;;;;;;;11.57;7.37;;;;;;;;;;769085;179;919199;-64
2021/09/23 13:30:51;;;;;;;15.00;7.20;;;;;;;;;;761327;180;918974;-63
2021/09/23 13:33:17;;;;;;;15.93;7.75;;;;;;;;;;762737;180;919216;-62
2021/09/23 13:35:43;;;;;;;13.47;7.17;;;;;;;;;;782401;178;918962;-63
2021/09/23 13:38:09;;;;;;;10.43;6.90;;;;;;;;;;770740;179;919630;-62
2021/09/23 13:40:35;;;;;;;17.50;7.30;;;;;;;;;;789562;175;918387;-65
2021/09/23 13:43:01;;;;;;;10.00;6.57;;;;;;;;;;779409;176;1124631;-63
2021/09/23 13:45:26;;;;;;;11.33;7.57;;;;;;;;;;775790;179;918794;-64
2021/09/23 13:47:53;;;;;;;15.40;7.07;;;;;;;;;;776073;179;919197;-63
2021/09/23 13:50:18;;;;;;;10.70;6.17;;;;;;;;;;774373;175;920946;-63
2021/09/23 13:52:45;;;;;;;14.33;7.07;;;;;;;;;;775749;179;918578;-63
2021/09/23 13:55:10;;;;;;;11.60;6.80;;;;;;;;;;768292;179;918368;-63
2021/09/23 13:57:36;;;;;;;16.20;8.43;;;;;;;;;;765035;179;918776;-63
2021/09/23 14:00:02;;;;;;;23.10;8.07;;;;;;;;;;774046;180;918828;-64
2021/09/23 14:02:28;;;;;;;14.63;7.43;;;;;;;;;;772546;180;915639;-64